Time;durP1;ratioP1;P1;durP2;ratioP2;P2;SDS_P1;SDS_P2;PMS_P1;PMS_P2;Temp;Humidity;BMP_temperature;BMP_pressure;BME280_temperature;BME280_humidity;BME280_pressure;Samples;Min_cycle;Max_cycle;Signal;HPM_P1;HPM_P2
2020/12/21 00:01:29;;;;;;;7.25;5.50;;;;;;;9.83;81.71;99534.09;4929969;28;20320;-84
2020/12/21 00:03:55;;;;;;;7.80;5.50;;;;;;;9.82;82.05;99540.41;4926364;29;20264;-85
2020/12/21 00:06:21;;;;;;;7.55;5.20;;;;;;;9.81;81.32;99544.91;4919410;28;20223;-85
2020/12/21 00:08:48;;;;;;;9.48;5.68;;;;;;;9.84;81.33;99541.19;4909988;29;20200;-84
2020/12/21 00:11:14;;;;;;;9.10;5.90;;;;;;;9.79;81.06;99543.25;4947997;28;20220;-85
2020/12/21 00:13:43;;;;;;;7.00;5.00;;;;;;;9.82;80.90;99552.00;4937563;29;20229;-85
2020/12/21 00:16:12;;;;;;;11.93;5.40;;;;;;;9.92;80.41;99552.34;4935205;29;20299;-85
2020/12/21 00:18:39;;;;;;;8.98;5.18;;;;;;;9.94;80.81;99553.13;4924283;29;20280;-84
2020/12/21 00:21:05;;;;;;;7.35;5.05;;;;;;;9.92;80.47;99550.53;4937670;28;20730;-84
2020/12/21 00:23:31;;;;;;;7.45;5.20;;;;;;;9.92;80.49;99547.84;4910083;28;20316;-84
2020/12/21 00:25:57;;;;;;;8.60;5.43;;;;;;;9.90;80.79;99554.25;4921521;29;20229;-84
2020/12/21 00:28:24;;;;;;;13.73;5.40;;;;;;;9.86;81.04;99550.88;4900372;29;21004;-83
2020/12/21 00:30:50;;;;;;;8.38;5.50;;;;;;;9.81;81.41;99550.28;4899658;28;20224;-83
2020/12/21 00:33:32;;;;;;;7.57;6.45;;;;;;;9.94;81.33;99555.81;4938356;28;20235;-83
2020/12/21 00:36:00;;;;;;;9.93;5.45;;;;;;;9.83;80.72;99559.09;4951687;28;20243;-84
2020/12/21 00:38:26;;;;;;;10.18;5.88;;;;;;;9.80;80.78;99556.59;4915709;28;20229;-84
2020/12/21 00:40:52;;;;;;;6.65;5.32;;;;;;;9.76;80.32;99552.34;4910498;29;20232;-83
2020/12/21 00:43:18;;;;;;;9.15;5.72;;;;;;;9.77;80.51;99558.59;4936466;29;20247;-84
2020/12/21 00:45:44;;;;;;;8.45;5.15;;;;;;;9.89;80.49;99552.53;4919110;28;20229;-84
2020/12/21 00:48:10;;;;;;;8.60;5.68;;;;;;;9.79;80.86;99551.31;4920473;29;20201;-84
2020/12/21 00:50:37;;;;;;;8.40;5.70;;;;;;;9.75;80.79;99550.59;4914070;29;20302;-83
2020/12/21 00:53:03;;;;;;;9.00;5.30;;;;;;;9.83;80.15;99545.66;4907502;29;20770;-84
2020/12/21 00:55:29;;;;;;;6.50;4.90;;;;;;;9.79;79.77;99546.81;4934195;28;20229;-87
2020/12/21 00:57:56;;;;;;;24.80;16.60;;;;;;;9.80;78.99;99542.28;4946542;28;20723;-86
2020/12/21 01:00:22;;;;;;;8.30;5.03;;;;;;;9.77;79.04;99547.84;4940713;29;20200;-85
2020/12/21 01:02:48;;;;;;;5.68;3.90;;;;;;;9.84;79.04;99547.41;4907667;29;20197;-86
2020/12/21 01:05:14;;;;;;;6.10;4.18;;;;;;;9.81;78.06;99550.28;4904176;29;20217;-88
2020/12/21 01:07:41;;;;;;;10.77;5.45;;;;;;;9.84;78.44;99552.78;4951928;29;20321;-85
2020/12/21 01:10:07;;;;;;;9.80;4.80;;;;;;;9.76;78.75;99552.34;4913711;29;20236;-85
2020/12/21 01:12:33;;;;;;;9.43;5.35;;;;;;;9.89;78.42;99557.91;4938163;29;20235;-87
2020/12/21 01:15:00;;;;;;;7.78;4.80;;;;;;;9.91;78.01;99551.50;4940604;29;20226;-89
2020/12/21 01:17:31;;;;;;;10.57;5.00;;;;;;;9.88;78.07;99558.84;4932003;28;20228;-87
2020/12/21 01:19:59;;;;;;;11.52;4.53;;;;;;;9.89;78.53;99555.22;4928357;29;20234;-86
2020/12/21 01:22:25;;;;;;;6.47;5.15;;;;;;;9.86;78.22;99563.44;4929167;28;20275;-86
2020/12/21 01:24:59;;;;;;;7.38;4.80;;;;;;;9.76;78.93;99562.22;4947170;29;20232;-84
2020/12/21 01:27:33;;;;;;;6.78;4.70;;;;;;;9.78;78.56;99560.31;4936200;29;20197;-85
2020/12/21 01:30:13;;;;;;;12.85;4.40;;;;;;;9.85;78.69;99556.34;4927880;29;20268;-89
2020/12/21 01:32:41;;;;;;;10.18;5.60;;;;;;;9.74;78.76;99564.13;4963033;29;20192;-84
2020/12/21 01:35:07;;;;;;;5.55;4.18;;;;;;;9.79;78.70;99562.03;4952559;29;20247;-85
2020/12/21 01:37:36;;;;;;;7.75;4.78;;;;;;;9.77;78.89;99559.44;4932939;29;20228;-85
2020/12/21 01:40:06;;;;;;;7.32;4.55;;;;;;;9.85;78.70;99561.72;4951269;28;20232;-84
2020/12/21 01:42:34;;;;;;;9.93;5.53;;;;;;;9.80;78.98;99561.09;4999026;23;20255;-88
2020/12/21 01:45:00;;;;;;;7.75;5.22;;;;;;;9.75;79.02;99558.66;5241651;23;20229;-85
2020/12/21 01:47:38;;;;;;;10.60;5.00;;;;;;;9.72;79.29;99560.66;5793249;23;20304;31
2020/12/21 01:50:06;;;;;;;9.27;4.78;;;;;;;9.63;79.28;99551.28;4923214;29;20217;-87
2020/12/21 01:52:35;;;;;;;4.72;4.20;;;;;;;9.69;79.24;99545.56;4937703;28;20273;-84
2020/12/21 01:55:02;;;;;;;9.18;4.50;;;;;;;9.54;80.03;99545.56;4923987;29;20229;-87
2020/12/21 01:57:33;;;;;;;5.70;3.83;;;;;;;9.70;79.42;99546.47;4918468;29;20233;-83
2020/12/21 02:00:04;;;;;;;6.95;4.15;;;;;;;9.67;79.48;99549.28;4956247;29;20273;-87
2020/12/21 02:02:41;;;;;;;9.02;4.45;;;;;;;9.55;79.38;99547.28;4937145;29;20284;-84
2020/12/21 02:05:15;;;;;;;8.98;4.20;;;;;;;9.64;78.95;99541.44;4950444;28;20233;-84
2020/12/21 02:07:43;;;;;;;12.25;4.22;;;;;;;9.51;79.24;99540.38;4943680;28;20256;-84
2020/12/21 02:10:10;;;;;;;7.05;4.10;;;;;;;9.44;79.77;99545.19;4942413;28;20229;-84
2020/12/21 02:12:43;;;;;;;6.88;4.35;;;;;;;9.51;79.36;99545.75;4891768;29;20260;-84
2020/12/21 02:18:18;;;;;;;13.77;4.60;;;;;;;9.52;79.04;99552.84;4963840;28;20267;-86
2020/12/21 02:20:45;;;;;;;6.15;4.25;;;;;;;9.44;78.99;99547.88;4931078;29;20235;-85
2020/12/21 02:23:12;;;;;;;8.38;3.58;;;;;;;9.42;79.31;99546.22;4958352;29;20227;-84
2020/12/21 02:25:39;;;;;;;17.08;4.93;;;;;;;9.53;79.03;99543.81;4927668;29;20229;-84
2020/12/21 02:28:08;;;;;;;8.38;4.07;;;;;;;9.47;78.59;99536.09;4965729;23;20218;-85
2020/12/21 02:36:39;;;;;;;5.32;3.83;;;;;;;9.44;79.33;99544.34;5273478;23;20236;31
2020/12/21 02:39:06;;;;;;;5.97;3.60;;;;;;;9.39;79.50;99549.94;5113450;23;20212;-84
2020/12/21 02:41:33;;;;;;;5.90;3.90;;;;;;;9.33;79.85;99552.09;4965932;28;20235;-87
2020/12/21 02:44:01;;;;;;;7.55;5.03;;;;;;;9.33;80.12;99549.41;4956998;28;20225;-84
2020/12/21 02:46:32;;;;;;;7.18;4.80;;;;;;;9.30;79.90;99546.88;4952159;28;20249;-85
2020/12/21 02:48:59;;;;;;;11.52;4.50;;;;;;;9.28;79.85;99538.94;4921371;28;20232;-82
2020/12/21 02:51:29;;;;;;;7.63;3.90;;;;;;;9.16;80.22;99546.75;4916709;28;20222;-88
2020/12/21 02:54:04;;;;;;;6.90;4.20;;;;;;;9.07;80.33;99544.56;4924344;29;20201;-85
2020/12/21 02:56:31;;;;;;;7.32;4.10;;;;;;;8.97;80.72;99549.56;4911137;29;20222;-84
2020/12/21 02:59:00;;;;;;;10.38;4.18;;;;;;;8.97;80.61;99549.56;4917734;29;20260;-84
2020/12/21 03:01:30;;;;;;;9.38;3.80;;;;;;;8.95;80.47;99551.47;4911085;29;20229;-85
2020/12/21 03:04:00;;;;;;;4.13;2.78;;;;;;;8.91;79.53;99546.31;4932604;29;20237;-85
2020/12/21 03:06:29;;;;;;;6.05;3.35;;;;;;;8.96;79.25;99544.25;4932960;28;20245;-85
2020/12/21 03:08:59;;;;;;;11.40;3.83;;;;;;;9.01;78.28;99542.22;4977195;23;20247;-84
2020/12/21 03:11:26;;;;;;;5.05;3.35;;;;;;;9.09;78.09;99542.66;4936355;29;20281;-83
2020/12/21 03:16:36;;;;;;;6.75;3.22;;;;;;;9.18;77.14;99550.25;4995336;23;20233;-85
2020/12/21 03:19:04;;;;;;;4.80;3.40;;;;;;;9.21;77.12;99547.38;4916695;29;20239;-84
2020/12/21 03:24:12;;;;;;;5.22;4.05;;;;;;;9.46;76.39;99553.16;4935820;28;20228;-87
2020/12/21 03:26:44;;;;;;;4.88;2.50;;;;;;;9.38;75.91;99540.16;4940320;29;20202;-86
2020/12/21 03:29:11;;;;;;;4.85;3.50;;;;;;;9.38;75.90;99544.66;4928900;29;20281;-84
2020/12/21 03:31:38;;;;;;;7.05;2.97;;;;;;;9.35;75.80;99544.81;4915103;29;20232;-84
2020/12/21 03:34:06;;;;;;;6.97;2.83;;;;;;;9.32;75.72;99535.13;4909899;29;20228;-84
2020/12/21 03:36:32;;;;;;;5.88;3.40;;;;;;;9.26;76.10;99532.75;4908829;28;21336;-86
2020/12/21 03:39:00;;;;;;;11.48;3.65;;;;;;;9.39;75.67;99535.66;4924929;29;20210;-85
2020/12/21 03:41:27;;;;;;;4.47;3.17;;;;;;;9.51;75.14;99537.69;5584738;23;21648;-86
2020/12/21 03:43:55;;;;;;;4.85;2.45;;;;;;;9.37;75.29;99546.47;4920172;28;20846;-84
2020/12/21 03:46:22;;;;;;;5.22;3.05;;;;;;;9.51;75.42;99532.31;4939793;29;20244;-87
2020/12/21 03:49:04;;;;;;;6.18;3.65;;;;;;;9.50;74.96;99530.59;4934375;28;20225;-85
2020/12/21 03:51:33;;;;;;;4.07;3.13;;;;;;;9.37;75.33;99532.19;4920734;29;20261;-85
2020/12/21 03:57:52;;;;;;;7.47;3.00;;;;;;;9.21;76.31;99510.69;4944810;29;20225;-84
2020/12/21 04:00:20;;;;;;;4.25;3.20;;;;;;;9.22;76.27;99509.75;4928105;29;20205;-84
2020/12/21 04:02:47;;;;;;;6.43;3.40;;;;;;;9.08;76.88;99506.06;4931300;29;20198;-84
2020/12/21 04:08:46;;;;;;;7.22;3.33;;;;;;;9.37;75.78;99494.59;4947700;29;20228;-83
2020/12/21 04:11:13;;;;;;;6.82;3.10;;;;;;;9.48;75.16;99498.44;4904079;29;20220;-85
2020/12/21 04:13:43;;;;;;;4.88;2.67;;;;;;;9.58;74.29;99490.75;4888819;29;20233;-83
2020/12/21 04:16:11;;;;;;;7.28;3.03;;;;;;;9.36;75.08;99492.88;4893166;28;20246;-84
2020/12/21 04:18:39;;;;;;;3.88;2.60;;;;;;;9.67;74.44;99503.66;4904291;29;20229;-85
2020/12/21 04:21:13;;;;;;;5.00;2.47;;;;;;;9.46;74.59;99502.16;4933854;29;20683;-84
2020/12/21 04:23:42;;;;;;;4.47;2.63;;;;;;;9.21;75.43;99499.97;5017758;23;20256;-84
2020/12/21 04:26:09;;;;;;;5.03;3.10;;;;;;;9.18;76.19;99496.59;4939004;28;20232;-85
2020/12/21 04:28:38;;;;;;;12.65;7.03;;;;;;;9.12;76.83;99497.75;4921908;29;20232;-84
2020/12/21 04:31:08;;;;;;;5.95;4.32;;;;;;;9.23;77.01;99497.19;5217248;23;20228;-84
2020/12/21 04:33:36;;;;;;;8.20;4.45;;;;;;;9.23;76.47;99499.88;5176139;23;20247;-84
2020/12/21 04:36:12;;;;;;;6.30;3.47;;;;;;;9.19;76.72;99498.31;4923534;29;20213;-86
2020/12/21 04:38:53;;;;;;;4.68;3.78;;;;;;;9.20;76.65;99503.56;4901909;29;20267;-84
2020/12/21 04:41:22;;;;;;;7.13;4.53;;;;;;;9.30;76.73;99509.31;4935274;29;20228;-85
2020/12/21 04:43:50;;;;;;;7.22;4.43;;;;;;;9.16;77.07;99511.88;4951056;29;20212;-84
2020/12/21 04:46:18;;;;;;;6.07;3.15;;;;;;;9.25;76.86;99516.78;4919117;29;20233;-85
2020/12/21 04:48:49;;;;;;;8.25;3.42;;;;;;;9.30;76.65;99510.19;5114996;23;20255;-85
2020/12/21 04:54:23;;;;;;;5.20;3.45;;;;;;;9.22;76.77;99511.56;5003318;23;20217;-85
2020/12/21 04:56:50;;;;;;;6.97;3.65;;;;;;;9.23;76.77;99514.16;5074403;23;20328;-84
2020/12/21 04:59:17;;;;;;;3.90;3.17;;;;;;;9.21;77.05;99504.47;4878752;29;20235;-84
2020/12/21 05:01:44;;;;;;;7.07;4.05;;;;;;;9.23;76.92;99513.28;4930267;23;20231;-85
2020/12/21 05:04:14;;;;;;;16.42;6.30;;;;;;;9.18;77.02;99499.28;4855927;29;20249;-83
2020/12/21 05:09:39;;;;;;;15.75;7.07;;;;;;;9.21;77.36;99491.03;5035823;23;20249;-85
2020/12/21 05:12:07;;;;;;;12.40;7.88;;;;;;;9.17;77.53;99494.81;4886385;29;20209;-85
2020/12/21 05:14:36;;;;;;;13.50;6.85;;;;;;;9.37;77.24;99499.97;4887882;29;20241;-84
2020/12/21 05:17:17;;;;;;;14.85;7.40;;;;;;;9.30;77.53;99499.47;5079342;23;20607;31
2020/12/21 05:19:44;;;;;;;9.30;5.30;;;;;;;9.21;77.87;99509.81;5354251;23;20240;-85
2020/12/21 05:33:11;;;;;;;5.60;5.00;;;;;;;8.89;79.25;99497.28;6167228;22;884401;-82
2020/12/21 05:35:40;;;;;;;5.40;4.90;;;;;;;8.86;79.95;99498.28;5998074;23;1433096;-85
2020/12/21 05:38:27;;;;;;;8.95;6.15;;;;;;;8.94;79.77;99496.06;6065697;23;20188;-87
2020/12/21 05:41:06;;;;;;;7.80;5.30;;;;;;;8.93;80.07;99488.13;6095470;23;20219;-86
2020/12/21 05:43:32;;;;;;;8.05;6.15;;;;;;;9.03;79.77;99484.88;6070055;23;20204;-87
2020/12/21 05:46:15;;;;;;;12.13;5.80;;;;;;;9.17;78.91;99476.94;6046701;23;20196;-88
2020/12/21 05:49:12;;;;;;;8.15;6.30;;;;;;;9.05;79.13;99474.03;6046405;23;20270;-84
2020/12/21 05:51:39;;;;;;;7.45;4.80;;;;;;;8.95;79.50;99470.13;6046946;23;20198;-87
2020/12/21 05:54:06;;;;;;;7.15;5.22;;;;;;;8.86;79.84;99466.13;6048429;23;20214;-86
2020/12/21 05:56:35;;;;;;;8.35;5.20;;;;;;;8.78;80.44;99457.63;6044230;23;20204;-87
2020/12/21 05:59:03;;;;;;;16.55;6.35;;;;;;;8.81;80.53;99452.09;6045529;23;20215;-86
2020/12/21 06:01:29;;;;;;;9.23;5.75;;;;;;;8.86;80.35;99443.81;6044913;23;20212;-87
2020/12/21 06:04:00;;;;;;;10.77;6.53;;;;;;;8.78;80.85;99446.91;6035404;23;20215;-83
2020/12/21 06:06:30;;;;;;;6.22;5.60;;;;;;;8.90;80.77;99456.09;6047031;23;20183;-83
2020/12/21 06:08:59;;;;;;;8.93;5.30;;;;;;;8.84;80.77;99449.25;6051207;23;20173;-84
2020/12/21 06:11:30;;;;;;;8.32;4.63;;;;;;;8.89;80.83;99457.03;6047926;23;20208;-83
2020/12/21 06:13:59;;;;;;;7.00;4.85;;;;;;;8.91;80.61;99463.19;6023746;23;20220;-83
2020/12/21 06:16:28;;;;;;;7.28;4.60;;;;;;;8.97;80.26;99458.38;6018640;23;20281;-83
2020/12/21 06:19:05;;;;;;;7.78;4.18;;;;;;;8.95;80.14;99449.56;5998522;23;20215;-84
2020/12/21 06:21:33;;;;;;;8.40;6.35;;;;;;;8.97;80.38;99450.31;6000020;23;20255;-85
2020/12/21 06:23:59;;;;;;;8.27;4.13;;;;;;;8.97;80.22;99453.00;6051989;23;20275;-85
2020/12/21 06:26:34;;;;;;;9.07;5.57;;;;;;;8.81;80.58;99452.09;6023993;23;20295;-84
2020/12/21 06:29:13;;;;;;;9.02;4.60;;;;;;;8.84;81.03;99451.06;6071665;23;20219;-84
2020/12/21 06:31:48;;;;;;;7.85;5.95;;;;;;;9.19;80.48;99448.19;6023424;23;20212;-84
2020/12/21 06:34:19;;;;;;;9.82;6.07;;;;;;;9.14;79.97;99441.34;6005013;23;20216;-84
2020/12/21 06:36:47;;;;;;;8.63;4.93;;;;;;;8.99;80.87;99423.44;5996907;23;20209;-84
2020/12/21 06:39:24;;;;;;;11.73;5.05;;;;;;;8.96;80.68;99423.56;6066973;23;20224;-84
2020/12/21 06:42:11;;;;;;;9.60;4.72;;;;;;;8.88;81.18;99432.03;6045722;23;20211;-84
2020/12/21 06:44:42;;;;;;;7.03;4.40;;;;;;;8.87;81.08;99432.13;6030902;23;20200;-86
2020/12/21 06:47:09;;;;;;;8.55;4.10;;;;;;;8.82;81.11;99426.16;6026747;23;20284;-85
2020/12/21 06:49:36;;;;;;;8.43;5.00;;;;;;;8.75;81.25;99430.97;6038748;23;20208;-85
2020/12/21 06:52:04;;;;;;;10.88;5.30;;;;;;;8.71;81.47;99434.78;6021449;23;20211;-84
2020/12/21 06:54:32;;;;;;;9.25;5.60;;;;;;;8.64;81.62;99427.13;6059831;23;20177;-86
2020/12/21 06:56:58;;;;;;;7.88;4.68;;;;;;;8.62;82.15;99434.38;6020826;23;20164;-84
2020/12/21 06:59:26;;;;;;;8.20;4.90;;;;;;;8.66;82.13;99433.25;6066290;23;20216;-84
2020/12/21 07:01:54;;;;;;;8.70;4.55;;;;;;;8.65;82.11;99445.81;5998753;23;20556;-85
2020/12/21 07:04:21;;;;;;;6.50;4.13;;;;;;;8.65;82.08;99439.56;6022125;23;20221;-85
2020/12/21 07:06:49;;;;;;;5.63;4.68;;;;;;;8.71;82.32;99445.50;6045645;23;20235;-84
2020/12/21 07:09:23;;;;;;;5.63;4.60;;;;;;;8.77;82.03;99455.00;6043495;23;20168;-85
2020/12/21 07:12:07;;;;;;;5.60;3.95;;;;;;;8.72;81.99;99449.03;6024172;23;20157;-84
2020/12/21 07:14:36;;;;;;;5.55;4.30;;;;;;;8.67;82.41;99460.00;6026679;23;20192;-83
2020/12/21 07:17:10;;;;;;;8.02;5.28;;;;;;;8.66;82.56;99469.00;6011293;23;20742;-84
2020/12/21 07:19:42;;;;;;;6.60;4.88;;;;;;;8.56;83.18;99469.56;6042670;23;20208;-84
2020/12/21 07:22:10;;;;;;;7.00;4.93;;;;;;;8.59;83.15;99466.69;6023367;23;20288;-84
2020/12/21 07:24:39;;;;;;;7.38;5.70;;;;;;;8.69;83.10;99467.97;6017045;23;20264;-84
2020/12/21 07:27:06;;;;;;;7.75;4.65;;;;;;;8.77;83.07;99473.78;6041970;23;20557;-84
2020/12/21 07:29:33;;;;;;;7.15;4.90;;;;;;;8.82;82.91;99471.72;6063783;23;20216;-83
2020/12/21 07:32:00;;;;;;;28.25;17.75;;;;;;;8.87;82.70;99475.03;6017597;23;20212;-84
2020/12/21 07:34:28;;;;;;;8.60;4.53;;;;;;;8.94;82.30;99469.25;6065524;23;20212;-83
2020/12/21 07:36:55;;;;;;;8.43;5.53;;;;;;;8.96;82.02;99469.16;6033271;23;20195;-86
2020/12/21 07:39:22;;;;;;;10.07;6.57;;;;;;;8.96;82.21;99471.84;6029506;23;20176;-84
2020/12/21 07:41:52;;;;;;;13.23;8.63;;;;;;;9.04;81.83;99472.31;6030098;23;20203;-84
2020/12/21 07:44:28;;;;;;;18.45;11.75;;;;;;;9.05;81.78;99460.63;6041584;23;20721;-85
2020/12/21 07:47:01;;;;;;;15.20;9.50;;;;;;;9.22;81.45;99463.25;6022623;23;20269;-83
2020/12/21 07:49:31;;;;;;;14.25;10.80;;;;;;;9.14;81.36;99460.97;6075917;23;20214;-84
2020/12/21 07:52:00;;;;;;;11.57;8.13;;;;;;;9.04;81.27;99466.94;6050805;23;20235;-84
2020/12/21 07:54:38;;;;;;;9.00;5.97;;;;;;;8.92;81.35;99470.28;6030725;23;20213;-83
2020/12/21 07:57:05;;;;;;;7.97;6.78;;;;;;;8.87;81.70;99477.72;6060975;23;20199;-84
2020/12/21 07:59:32;;;;;;;9.10;5.70;;;;;;;8.86;81.50;99470.63;6086724;23;20188;-85
2020/12/21 08:01:59;;;;;;;9.30;6.68;;;;;;;8.82;81.46;99471.72;6018469;23;20205;-86
2020/12/21 08:04:27;;;;;;;8.52;5.55;;;;;;;8.80;81.17;99477.16;6048220;23;20209;-87
2020/12/21 08:07:02;;;;;;;7.25;6.25;;;;;;;8.77;81.63;99465.72;6028501;23;20262;-86
2020/12/21 08:09:37;;;;;;;12.27;5.80;;;;;;;8.79;81.67;99466.50;5996045;23;20489;-84
2020/12/21 08:12:16;;;;;;;7.30;5.20;;;;;;;8.72;81.85;99465.09;6024256;23;20730;-84
2020/12/21 08:14:43;;;;;;;6.72;5.05;;;;;;;8.74;82.07;99473.97;6043494;23;20208;-84
2020/12/21 08:17:14;;;;;;;7.80;6.15;;;;;;;8.73;81.93;99472.19;6016807;23;20272;-83
2020/12/21 08:20:05;;;;;;;9.10;5.60;;;;;;;8.72;82.12;99479.38;6056998;23;20207;-85
2020/12/21 08:22:32;;;;;;;7.50;6.65;;;;;;;8.70;82.01;99472.38;6021120;23;20219;-84
2020/12/21 08:25:10;;;;;;;6.07;5.47;;;;;;;8.74;82.39;99473.97;6021579;23;20204;-83
2020/12/21 08:27:37;;;;;;;6.35;5.20;;;;;;;8.78;82.20;99470.16;6015860;23;20233;-84
2020/12/21 08:30:14;;;;;;;12.02;7.00;;;;;;;8.84;82.04;99476.06;6040242;23;20169;-84
2020/12/21 08:32:42;;;;;;;8.57;6.15;;;;;;;8.90;81.85;99472.19;6042100;23;20232;-83
2020/12/21 08:35:08;;;;;;;12.38;7.00;;;;;;;8.90;81.71;99469.50;6017508;23;20216;-84
2020/12/21 08:37:36;;;;;;;11.68;6.20;;;;;;;8.94;81.70;99471.06;6015817;23;20256;-85
2020/12/21 08:40:16;;;;;;;14.93;7.03;;;;;;;8.95;81.66;99467.44;6008059;23;20205;-83
2020/12/21 08:42:43;;;;;;;11.75;6.68;;;;;;;9.01;81.41;99475.16;6004992;23;20215;-87
2020/12/21 08:45:10;;;;;;;10.65;6.20;;;;;;;9.03;81.30;99470.56;6017018;23;20231;-83
2020/12/21 08:47:37;;;;;;;12.15;5.45;;;;;;;9.08;81.03;99469.41;5986103;23;20220;-84
2020/12/21 08:50:04;;;;;;;9.38;7.40;;;;;;;9.09;81.07;99464.88;6007711;23;20251;-85
2020/12/21 08:52:32;;;;;;;9.48;6.03;;;;;;;9.14;81.28;99466.34;6013954;23;20556;-84
2020/12/21 08:54:58;;;;;;;10.73;5.75;;;;;;;9.24;80.90;99466.72;6011180;23;20307;-83
2020/12/21 08:57:31;;;;;;;11.52;6.65;;;;;;;9.33;80.65;99455.50;6037382;23;20173;-84
2020/12/21 08:59:58;;;;;;;13.82;8.88;;;;;;;9.36;80.12;99452.63;6043289;23;20652;-83
2020/12/21 09:02:26;;;;;;;12.30;8.65;;;;;;;9.36;79.91;99455.31;6015525;23;20209;-84
2020/12/21 09:04:53;;;;;;;11.25;6.00;;;;;;;9.36;80.02;99449.94;6033923;23;20660;-86
2020/12/21 09:07:34;;;;;;;12.35;6.70;;;;;;;9.40;79.77;99447.03;5994390;23;20211;-83
2020/12/21 09:10:05;;;;;;;12.75;7.13;;;;;;;9.45;79.67;99454.81;5986091;23;20205;-85
2020/12/21 09:12:33;;;;;;;10.65;5.85;;;;;;;9.50;79.45;99452.75;5999169;23;20291;-85
2020/12/21 09:15:00;;;;;;;8.93;4.80;;;;;;;9.52;79.28;99437.41;6022172;23;20196;-84
2020/12/21 09:17:27;;;;;;;6.03;3.65;;;;;;;9.56;78.36;99433.56;6010333;23;20216;-84
2020/12/21 09:19:54;;;;;;;6.35;4.35;;;;;;;9.60;78.31;99436.03;6036376;23;20213;-84
2020/12/21 09:22:26;;;;;;;6.70;4.20;;;;;;;9.69;78.26;99439.97;6009234;23;20212;-83
2020/12/21 09:25:01;;;;;;;8.85;4.18;;;;;;;9.71;78.06;99446.16;5993405;23;20215;-84
2020/12/21 09:27:34;;;;;;;9.80;6.38;;;;;;;9.79;78.25;99443.88;5999683;23;20191;-84
2020/12/21 09:30:04;;;;;;;6.47;4.80;;;;;;;9.84;77.35;99436.44;6022776;23;20619;-84
2020/12/21 09:32:32;;;;;;;6.93;3.40;;;;;;;9.83;77.06;99442.75;6037448;23;20664;-85
2020/12/21 09:34:59;;;;;;;7.15;3.45;;;;;;;9.97;76.75;99445.50;6033726;23;20216;-84
2020/12/21 09:37:26;;;;;;;7.75;3.97;;;;;;;10.05;76.37;99440.59;6015588;23;20228;-84
2020/12/21 09:40:11;;;;;;;3.70;3.40;;;;;;;10.02;76.16;99435.38;6019829;23;20200;-85
2020/12/21 09:42:39;;;;;;;6.82;4.10;;;;;;;10.08;76.07;99429.69;6012968;23;20208;-84
2020/12/21 09:45:06;;;;;;;11.27;5.38;;;;;;;10.23;76.36;99426.06;6044890;23;20267;-84
2020/12/21 09:47:35;;;;;;;11.77;7.43;;;;;;;10.40;76.10;99417.88;6012020;23;20616;-83
2020/12/21 09:50:02;;;;;;;13.00;7.85;;;;;;;10.25;76.26;99421.47;6032338;23;20212;-84
2020/12/21 09:52:30;;;;;;;18.30;9.80;;;;;;;10.10;76.72;99408.94;5990647;23;20232;-83
2020/12/21 09:55:11;;;;;;;10.80;8.20;;;;;;;10.27;76.20;99419.56;5993416;23;20232;-85
2020/12/21 09:57:39;;;;;;;10.90;6.68;;;;;;;10.41;76.00;99419.59;6034455;23;20208;-87
2020/12/21 10:00:06;;;;;;;19.90;9.30;;;;;;;10.18;76.59;99420.09;6021104;23;20173;-85
2020/12/21 10:02:36;;;;;;;9.50;6.68;;;;;;;10.09;76.71;99405.38;6034815;23;20212;-88
2020/12/21 10:05:03;;;;;;;6.60;4.43;;;;;;;10.32;75.15;99401.31;6026202;23;20216;-88
2020/12/21 10:07:29;;;;;;;7.55;4.10;;;;;;;10.38;75.02;99401.81;6034782;23;20279;-87
2020/12/21 10:09:57;;;;;;;8.73;4.30;;;;;;;10.50;73.93;99390.34;6047603;23;20212;-91
2020/12/21 10:12:25;;;;;;;7.97;4.07;;;;;;;10.50;72.52;99389.44;6014680;23;20169;-87
2020/12/21 10:14:56;;;;;;;5.30;4.00;;;;;;;10.59;72.33;99383.53;6074374;23;20196;-88
2020/12/21 10:17:22;;;;;;;3.55;2.97;;;;;;;10.46;73.26;99383.41;6050818;23;20212;-83
2020/12/21 10:19:48;;;;;;;8.13;3.53;;;;;;;10.60;72.96;99366.44;6024488;23;20240;-83
2020/12/21 10:22:14;;;;;;;3.15;2.10;;;;;;;10.45;72.12;99372.72;6050748;23;20204;-81
2020/12/21 10:24:44;;;;;;;5.30;2.47;;;;;;;10.57;72.28;99364.78;6092067;23;20204;-87
2020/12/21 10:27:10;;;;;;;6.28;2.70;;;;;;;10.73;71.65;99348.56;6077893;23;20173;-86
2020/12/21 10:29:49;;;;;;;4.22;2.60;;;;;;;10.76;71.58;99348.38;6040478;23;20283;-87
2020/12/21 10:32:16;;;;;;;5.45;2.83;;;;;;;10.66;71.70;99358.00;6037186;23;20200;-86
2020/12/21 10:34:42;;;;;;;4.10;2.47;;;;;;;10.55;71.67;99355.09;6039911;23;20215;-86
2020/12/21 10:37:08;;;;;;;2.92;2.50;;;;;;;10.42;72.05;99356.81;6045086;23;20205;-88
2020/12/21 10:39:49;;;;;;;9.95;3.92;;;;;;;10.26;72.96;99348.81;6079590;23;20204;-87
2020/12/21 10:42:15;;;;;;;3.65;2.85;;;;;;;10.05;73.47;99334.00;6065822;23;20227;-84
2020/12/21 10:44:41;;;;;;;3.92;2.40;;;;;;;10.09;74.21;99348.09;6097981;23;20202;-85
2020/12/21 10:47:07;;;;;;;6.45;3.75;;;;;;;10.17;74.15;99335.94;6038164;23;20235;-85
2020/12/21 10:49:41;;;;;;;3.72;3.00;;;;;;;10.53;73.04;99330.13;6032582;23;20649;-85
2020/12/21 10:52:07;;;;;;;6.43;3.47;;;;;;;10.72;72.31;99333.41;6064747;23;20263;-85
2020/12/21 10:54:33;;;;;;;3.78;2.50;;;;;;;10.89;71.08;99325.09;6046969;23;20700;-83
2020/12/21 10:57:05;;;;;;;6.87;2.67;;;;;;;11.12;70.79;99335.28;6063429;23;20377;-86
2020/12/21 10:59:34;;;;;;;4.80;2.47;;;;;;;11.25;70.87;99341.59;6069919;23;20417;-87
2020/12/21 11:02:03;;;;;;;4.60;3.28;;;;;;;11.22;70.17;99320.22;6040071;23;20759;-88
2020/12/21 11:04:31;;;;;;;2.70;2.17;;;;;;;11.34;70.45;99316.75;6066094;23;20688;-83
2020/12/21 11:06:57;;;;;;;4.20;2.53;;;;;;;11.35;70.04;99315.78;6061401;23;20673;-89
2020/12/21 11:09:23;;;;;;;4.00;2.55;;;;;;;11.32;70.34;99310.59;6073100;22;20259;-85
2020/12/21 11:11:50;;;;;;;3.08;2.30;;;;;;;11.37;69.92;99313.88;6101133;23;20340;-84
2020/12/21 11:14:17;;;;;;;3.38;2.60;;;;;;;11.51;70.10;99300.34;6039977;23;20212;-83
2020/12/21 11:16:49;;;;;;;3.55;2.30;;;;;;;11.53;69.68;99293.91;6043148;23;20172;-82
2020/12/21 11:19:16;;;;;;;2.70;2.50;;;;;;;11.61;69.53;99286.19;6088675;23;20242;-83
2020/12/21 11:21:42;;;;;;;3.95;3.08;;;;;;;11.68;68.82;99298.28;6069031;23;20234;-85
2020/12/21 11:24:08;;;;;;;3.78;2.47;;;;;;;11.49;68.66;99297.75;6092430;23;20218;-82
2020/12/21 11:26:35;;;;;;;5.05;2.42;;;;;;;11.60;69.02;99294.38;6096370;23;20215;-83
2020/12/21 11:29:04;;;;;;;6.18;2.70;;;;;;;11.83;68.38;99291.88;6068830;23;20172;-82
2020/12/21 11:31:31;;;;;;;5.57;3.35;;;;;;;11.94;67.93;99285.75;6110945;23;20232;-83
2020/12/21 11:33:58;;;;;;;3.53;3.05;;;;;;;12.02;67.62;99286.06;6110046;23;20301;-83
2020/12/21 11:36:25;;;;;;;3.65;2.30;;;;;;;12.26;66.88;99281.69;6086624;23;20234;-82
2020/12/21 11:39:06;;;;;;;3.20;2.10;;;;;;;12.15;66.08;99295.03;6092190;23;20998;-81
2020/12/21 11:41:32;;;;;;;4.90;2.42;;;;;;;12.05;65.88;99302.03;6069396;23;20290;-81
2020/12/21 11:43:58;;;;;;;3.65;2.47;;;;;;;11.77;66.42;99304.88;6092726;23;20488;-80
2020/12/21 11:46:29;;;;;;;4.00;2.42;;;;;;;11.66;66.80;99289.44;6099624;23;20648;-80
2020/12/21 11:48:56;;;;;;;5.40;2.58;;;;;;;11.81;66.73;99283.00;6093648;23;20278;-83
2020/12/21 11:51:22;;;;;;;2.25;2.05;;;;;;;11.93;66.09;99284.00;6096488;23;20207;-82
2020/12/21 11:53:48;;;;;;;4.15;2.33;;;;;;;11.93;67.26;99278.59;6095388;23;20210;-82
2020/12/21 11:56:18;;;;;;;4.90;2.70;;;;;;;11.65;66.09;99270.69;6086133;23;20175;-82
2020/12/21 11:58:44;;;;;;;5.20;2.28;;;;;;;11.78;66.34;99271.59;6135660;23;20164;-81
2020/12/21 12:01:11;;;;;;;3.97;2.70;;;;;;;11.79;65.67;99267.91;6069156;23;20231;-82
2020/12/21 12:03:37;;;;;;;3.55;2.00;;;;;;;11.59;65.97;99253.13;6095625;23;20238;-81
2020/12/21 12:06:03;;;;;;;3.53;2.22;;;;;;;11.65;65.89;99244.63;6079181;23;20302;-81
2020/12/21 12:08:30;;;;;;;2.88;2.15;;;;;;;11.53;65.99;99239.16;6049091;23;20219;-80
2020/12/21 12:10:57;;;;;;;3.90;2.20;;;;;;;11.47;66.21;99234.19;6059625;23;20284;-81
2020/12/21 12:13:23;;;;;;;2.90;1.70;;;;;;;11.39;65.46;99226.66;6078718;23;20209;-81
2020/12/21 12:15:49;;;;;;;3.40;2.88;;;;;;;11.35;66.29;99216.16;6069078;23;20207;-81
2020/12/21 12:18:15;;;;;;;3.58;1.90;;;;;;;11.49;65.55;99195.44;6087564;23;20213;-81
2020/12/21 12:20:42;;;;;;;15.07;2.38;;;;;;;11.56;65.49;99180.56;6087887;23;20581;-81
2020/12/21 12:23:08;;;;;;;3.58;1.92;;;;;;;11.49;64.54;99167.66;6073162;23;20176;-83
2020/12/21 12:25:34;;;;;;;3.03;2.00;;;;;;;11.59;64.16;99158.00;6071249;23;20195;-81
2020/12/21 12:28:03;;;;;;;2.40;1.70;;;;;;;11.72;63.48;99142.69;6071356;23;20215;-81